sensor_id;sensor_type;location;lat;lon;timestamp;temperature;humidity
39453;DHT22;25154;-33.684;151.102;2022-10-16T00:04:04;21.00;99.90
39453;DHT22;25154;-33.684;151.102;2022-10-16T00:09:07;20.60;99.90
39453;DHT22;25154;-33.684;151.102;2022-10-16T00:14:14;20.90;99.90
39453;DHT22;25154;-33.684;151.102;2022-10-16T00:19:17;21.70;99.90
39453;DHT22;25154;-33.684;151.102;2022-10-16T00:24:19;21.20;99.90
39453;DHT22;25154;-33.684;151.102;2022-10-16T00:29:21;21.10;99.90
39453;DHT22;25154;-33.684;151.102;2022-10-16T00:34:24;21.40;99.90
39453;DHT22;25154;-33.684;151.102;2022-10-16T00:39:26;22.90;99.90
39453;DHT22;25154;-33.684;151.102;2022-10-16T00:49:58;24.90;99.90
39453;DHT22;25154;-33.684;151.102;2022-10-16T00:55:04;24.60;99.80
39453;DHT22;25154;-33.684;151.102;2022-10-16T01:00:09;25.30;98.90
39453;DHT22;25154;-33.684;151.102;2022-10-16T01:05:12;25.70;99.10
39453;DHT22;25154;-33.684;151.102;2022-10-16T01:21:05;25.70;99.60
39453;DHT22;25154;-33.684;151.102;2022-10-16T01:26:26;26.40;98.10
39453;DHT22;25154;-33.684;151.102;2022-10-16T01:31:35;25.90;97.90
39453;DHT22;25154;-33.684;151.102;2022-10-16T01:36:51;24.50;99.80
39453;DHT22;25154;-33.684;151.102;2022-10-16T01:42:16;23.80;99.90
39453;DHT22;25154;-33.684;151.102;2022-10-16T01:47:21;22.50;99.90
39453;DHT22;25154;-33.684;151.102;2022-10-16T01:52:27;23.10;99.90
39453;DHT22;25154;-33.684;151.102;2022-10-16T01:57:31;23.10;99.90
39453;DHT22;25154;-33.684;151.102;2022-10-16T02:02:35;24.20;99.90
39453;DHT22;25154;-33.684;151.102;2022-10-16T02:07:38;23.80;99.90
39453;DHT22;25154;-33.684;151.102;2022-10-16T02:12:57;23.70;99.90
39453;DHT22;25154;-33.684;151.102;2022-10-16T02:18:01;23.80;99.90
39453;DHT22;25154;-33.684;151.102;2022-10-16T02:23:04;23.70;99.90
39453;DHT22;25154;-33.684;151.102;2022-10-16T02:33:16;25.70;99.90
39453;DHT22;25154;-33.684;151.102;2022-10-16T02:38:21;26.10;99.90
39453;DHT22;25154;-33.684;151.102;2022-10-16T02:43:25;26.00;99.20
39453;DHT22;25154;-33.684;151.102;2022-10-16T02:48:28;26.40;99.90
39453;DHT22;25154;-33.684;151.102;2022-10-16T02:53:30;26.40;98.80
39453;DHT22;25154;-33.684;151.102;2022-10-16T02:58:32;26.20;99.50
39453;DHT22;25154;-33.684;151.102;2022-10-16T03:03:35;26.10;98.70
39453;DHT22;25154;-33.684;151.102;2022-10-16T03:08:37;26.30;98.80
39453;DHT22;25154;-33.684;151.102;2022-10-16T03:13:39;26.00;98.30
39453;DHT22;25154;-33.684;151.102;2022-10-16T03:18:42;25.50;98.50
39453;DHT22;25154;-33.684;151.102;2022-10-16T03:23:44;24.70;99.90
39453;DHT22;25154;-33.684;151.102;2022-10-16T03:28:46;24.20;99.90
39453;DHT22;25154;-33.684;151.102;2022-10-16T03:33:49;24.20;99.90
39453;DHT22;25154;-33.684;151.102;2022-10-16T03:38:51;25.10;99.90
39453;DHT22;25154;-33.684;151.102;2022-10-16T03:43:53;25.90;98.80
39453;DHT22;25154;-33.684;151.102;2022-10-16T03:48:56;25.30;99.90
39453;DHT22;25154;-33.684;151.102;2022-10-16T03:53:58;24.30;99.90
39453;DHT22;25154;-33.684;151.102;2022-10-16T03:59:00;23.60;99.90
39453;DHT22;25154;-33.684;151.102;2022-10-16T04:04:03;24.10;99.90
39453;DHT22;25154;-33.684;151.102;2022-10-16T04:09:05;23.70;99.90
39453;DHT22;25154;-33.684;151.102;2022-10-16T04:14:07;23.50;99.90
39453;DHT22;25154;-33.684;151.102;2022-10-16T04:19:10;23.50;99.90
39453;DHT22;25154;-33.684;151.102;2022-10-16T04:24:13;23.00;99.90
39453;DHT22;25154;-33.684;151.102;2022-10-16T04:29:15;22.30;99.90
39453;DHT22;25154;-33.684;151.102;2022-10-16T04:34:17;22.10;99.90
39453;DHT22;25154;-33.684;151.102;2022-10-16T04:39:20;22.20;99.90
39453;DHT22;25154;-33.684;151.102;2022-10-16T04:44:22;23.90;99.90
39453;DHT22;25154;-33.684;151.102;2022-10-16T04:49:24;25.70;99.90
39453;DHT22;25154;-33.684;151.102;2022-10-16T04:54:27;27.60;98.90
39453;DHT22;25154;-33.684;151.102;2022-10-16T04:59:29;28.40;96.80
39453;DHT22;25154;-33.684;151.102;2022-10-16T05:04:32;29.20;96.60
39453;DHT22;25154;-33.684;151.102;2022-10-16T05:09:34;28.20;96.40
39453;DHT22;25154;-33.684;151.102;2022-10-16T05:14:36;28.40;97.40
39453;DHT22;25154;-33.684;151.102;2022-10-16T05:19:42;28.40;96.50
39453;DHT22;25154;-33.684;151.102;2022-10-16T05:24:45;27.70;97.50
39453;DHT22;25154;-33.684;151.102;2022-10-16T05:29:49;27.10;97.30
39453;DHT22;25154;-33.684;151.102;2022-10-16T05:34:53;26.10;98.00
39453;DHT22;25154;-33.684;151.102;2022-10-16T05:39:56;25.80;99.30
39453;DHT22;25154;-33.684;151.102;2022-10-16T05:45:04;26.50;98.80
39453;DHT22;25154;-33.684;151.102;2022-10-16T05:50:10;26.30;98.80
39453;DHT22;25154;-33.684;151.102;2022-10-16T05:55:13;25.30;99.80
39453;DHT22;25154;-33.684;151.102;2022-10-16T06:00:15;25.00;99.90
39453;DHT22;25154;-33.684;151.102;2022-10-16T06:05:21;24.90;99.90
39453;DHT22;25154;-33.684;151.102;2022-10-16T06:10:23;24.30;99.90
39453;DHT22;25154;-33.684;151.102;2022-10-16T06:15:25;25.00;99.90
39453;DHT22;25154;-33.684;151.102;2022-10-16T06:20:28;24.50;99.90
39453;DHT22;25154;-33.684;151.102;2022-10-16T06:25:31;23.70;99.90
39453;DHT22;25154;-33.684;151.102;2022-10-16T06:30:33;23.10;99.90
39453;DHT22;25154;-33.684;151.102;2022-10-16T06:35:38;22.10;99.90
39453;DHT22;25154;-33.684;151.102;2022-10-16T06:40:40;21.10;99.90
39453;DHT22;25154;-33.684;151.102;2022-10-16T06:45:43;20.40;99.90
39453;DHT22;25154;-33.684;151.102;2022-10-16T06:50:54;20.00;99.90
39453;DHT22;25154;-33.684;151.102;2022-10-16T06:55:57;19.60;99.90
39453;DHT22;25154;-33.684;151.102;2022-10-16T07:00:59;19.40;99.90
39453;DHT22;25154;-33.684;151.102;2022-10-16T07:06:03;19.40;99.90
39453;DHT22;25154;-33.684;151.102;2022-10-16T07:11:12;19.20;99.90
39453;DHT22;25154;-33.684;151.102;2022-10-16T07:16:17;19.20;99.90
39453;DHT22;25154;-33.684;151.102;2022-10-16T07:21:21;19.00;99.90
39453;DHT22;25154;-33.684;151.102;2022-10-16T07:26:25;18.80;99.90
39453;DHT22;25154;-33.684;151.102;2022-10-16T07:31:28;18.60;99.90
39453;DHT22;25154;-33.684;151.102;2022-10-16T07:36:31;18.40;99.90
39453;DHT22;25154;-33.684;151.102;2022-10-16T07:41:33;18.30;99.90
39453;DHT22;25154;-33.684;151.102;2022-10-16T07:46:38;18.10;99.90
39453;DHT22;25154;-33.684;151.102;2022-10-16T07:51:40;18.00;99.90
39453;DHT22;25154;-33.684;151.102;2022-10-16T07:56:43;17.80;99.90
39453;DHT22;25154;-33.684;151.102;2022-10-16T08:01:48;17.80;99.90
39453;DHT22;25154;-33.684;151.102;2022-10-16T08:06:50;17.60;99.90
39453;DHT22;25154;-33.684;151.102;2022-10-16T08:11:53;17.50;99.90
39453;DHT22;25154;-33.684;151.102;2022-10-16T08:16:55;17.30;99.90
39453;DHT22;25154;-33.684;151.102;2022-10-16T08:21:57;17.20;99.90
39453;DHT22;25154;-33.684;151.102;2022-10-16T08:26:59;17.10;99.90
39453;DHT22;25154;-33.684;151.102;2022-10-16T08:32:04;16.90;99.90
39453;DHT22;25154;-33.684;151.102;2022-10-16T08:37:06;16.80;99.90
39453;DHT22;25154;-33.684;151.102;2022-10-16T08:53:09;16.60;99.90
39453;DHT22;25154;-33.684;151.102;2022-10-16T08:58:28;16.70;99.90
39453;DHT22;25154;-33.684;151.102;2022-10-16T09:08:54;16.90;99.90
39453;DHT22;25154;-33.684;151.102;2022-10-16T09:14:07;16.90;99.90
39453;DHT22;25154;-33.684;151.102;2022-10-16T09:19:36;17.00;99.90
39453;DHT22;25154;-33.684;151.102;2022-10-16T09:24:40;17.00;99.90
39453;DHT22;25154;-33.684;151.102;2022-10-16T09:29:42;17.00;99.90
39453;DHT22;25154;-33.684;151.102;2022-10-16T09:34:55;17.00;99.90
39453;DHT22;25154;-33.684;151.102;2022-10-16T09:39:59;17.00;99.90
39453;DHT22;25154;-33.684;151.102;2022-10-16T09:45:02;17.00;99.90
39453;DHT22;25154;-33.684;151.102;2022-10-16T09:50:23;17.00;99.90
39453;DHT22;25154;-33.684;151.102;2022-10-16T09:55:27;17.00;99.90
39453;DHT22;25154;-33.684;151.102;2022-10-16T10:00:31;17.00;99.90
39453;DHT22;25154;-33.684;151.102;2022-10-16T10:05:40;16.90;99.90
39453;DHT22;25154;-33.684;151.102;2022-10-16T10:10:48;16.70;99.90
39453;DHT22;25154;-33.684;151.102;2022-10-16T10:15:51;16.70;99.90
39453;DHT22;25154;-33.684;151.102;2022-10-16T10:20:59;16.50;99.90
39453;DHT22;25154;-33.684;151.102;2022-10-16T10:26:14;16.40;99.90
39453;DHT22;25154;-33.684;151.102;2022-10-16T10:36:40;16.40;99.90
39453;DHT22;25154;-33.684;151.102;2022-10-16T10:42:14;16.30;99.90
39453;DHT22;25154;-33.684;151.102;2022-10-16T10:53:21;16.20;99.90
39453;DHT22;25154;-33.684;151.102;2022-10-16T11:09:16;16.00;99.90
39453;DHT22;25154;-33.684;151.102;2022-10-16T11:25:19;15.80;99.90
39453;DHT22;25154;-33.684;151.102;2022-10-16T11:30:27;17.70;99.90
39453;DHT22;25154;-33.684;151.102;2022-10-16T11:41:23;16.00;99.90
39453;DHT22;25154;-33.684;151.102;2022-10-16T11:46:27;16.00;99.90
39453;DHT22;25154;-33.684;151.102;2022-10-16T11:51:51;16.10;99.90
39453;DHT22;25154;-33.684;151.102;2022-10-16T11:57:01;16.10;99.90
39453;DHT22;25154;-33.684;151.102;2022-10-16T12:07:24;16.10;99.90
39453;DHT22;25154;-33.684;151.102;2022-10-16T12:17:39;16.10;99.90
39453;DHT22;25154;-33.684;151.102;2022-10-16T12:23:04;16.10;99.90
39453;DHT22;25154;-33.684;151.102;2022-10-16T12:28:19;16.10;99.90
39453;DHT22;25154;-33.684;151.102;2022-10-16T12:33:30;16.10;99.90
39453;DHT22;25154;-33.684;151.102;2022-10-16T12:38:52;16.00;99.90
39453;DHT22;25154;-33.684;151.102;2022-10-16T12:43:56;16.00;99.90
39453;DHT22;25154;-33.684;151.102;2022-10-16T12:54:21;16.30;99.90
39453;DHT22;25154;-33.684;151.102;2022-10-16T13:10:40;16.00;99.90
39453;DHT22;25154;-33.684;151.102;2022-10-16T13:21:04;16.00;99.90
39453;DHT22;25154;-33.684;151.102;2022-10-16T13:32:10;15.90;99.90
39453;DHT22;25154;-33.684;151.102;2022-10-16T13:37:24;15.80;99.90
39453;DHT22;25154;-33.684;151.102;2022-10-16T13:42:28;15.60;99.90
39453;DHT22;25154;-33.684;151.102;2022-10-16T13:47:32;15.80;99.90
39453;DHT22;25154;-33.684;151.102;2022-10-16T13:52:35;15.70;99.90
39453;DHT22;25154;-33.684;151.102;2022-10-16T13:57:39;15.60;99.90
39453;DHT22;25154;-33.684;151.102;2022-10-16T14:02:42;15.60;99.90
39453;DHT22;25154;-33.684;151.102;2022-10-16T14:07:50;15.50;99.90
39453;DHT22;25154;-33.684;151.102;2022-10-16T14:13:04;15.50;99.90
39453;DHT22;25154;-33.684;151.102;2022-10-16T14:18:13;15.50;99.90
39453;DHT22;25154;-33.684;151.102;2022-10-16T14:28:23;15.50;99.90
39453;DHT22;25154;-33.684;151.102;2022-10-16T14:33:34;15.50;99.90
39453;DHT22;25154;-33.684;151.102;2022-10-16T14:44:03;15.40;99.90
39453;DHT22;25154;-33.684;151.102;2022-10-16T14:54:14;15.40;99.90
39453;DHT22;25154;-33.684;151.102;2022-10-16T15:04:33;15.30;99.90
39453;DHT22;25154;-33.684;151.102;2022-10-16T15:09:35;15.30;99.90
39453;DHT22;25154;-33.684;151.102;2022-10-16T15:14:38;15.30;99.90
39453;DHT22;25154;-33.684;151.102;2022-10-16T15:19:41;15.30;99.90
39453;DHT22;25154;-33.684;151.102;2022-10-16T15:24:44;15.30;99.90
39453;DHT22;25154;-33.684;151.102;2022-10-16T15:29:47;15.20;99.90
39453;DHT22;25154;-33.684;151.102;2022-10-16T15:34:49;15.20;99.90
39453;DHT22;25154;-33.684;151.102;2022-10-16T15:39:52;15.20;99.90
39453;DHT22;25154;-33.684;151.102;2022-10-16T15:44:55;15.20;99.90
39453;DHT22;25154;-33.684;151.102;2022-10-16T15:49:59;15.20;99.90
39453;DHT22;25154;-33.684;151.102;2022-10-16T15:55:01;15.20;99.90
39453;DHT22;25154;-33.684;151.102;2022-10-16T16:00:10;15.30;99.90
39453;DHT22;25154;-33.684;151.102;2022-10-16T16:05:14;15.30;99.90
39453;DHT22;25154;-33.684;151.102;2022-10-16T16:10:17;15.40;99.90
39453;DHT22;25154;-33.684;151.102;2022-10-16T16:15:21;15.30;99.90
39453;DHT22;25154;-33.684;151.102;2022-10-16T16:20:24;15.40;99.90
39453;DHT22;25154;-33.684;151.102;2022-10-16T16:25:27;15.30;99.90
39453;DHT22;25154;-33.684;151.102;2022-10-16T16:30:29;15.30;99.90
39453;DHT22;25154;-33.684;151.102;2022-10-16T16:35:32;15.30;99.90
39453;DHT22;25154;-33.684;151.102;2022-10-16T16:40:35;15.30;99.90
39453;DHT22;25154;-33.684;151.102;2022-10-16T16:45:37;15.30;99.90
39453;DHT22;25154;-33.684;151.102;2022-10-16T16:50:40;15.20;99.90
39453;DHT22;25154;-33.684;151.102;2022-10-16T16:55:43;15.20;99.90
39453;DHT22;25154;-33.684;151.102;2022-10-16T17:00:46;15.20;99.90
39453;DHT22;25154;-33.684;151.102;2022-10-16T17:06:07;15.10;99.90
39453;DHT22;25154;-33.684;151.102;2022-10-16T17:11:16;15.00;99.90
39453;DHT22;25154;-33.684;151.102;2022-10-16T17:16:19;15.00;99.90
39453;DHT22;25154;-33.684;151.102;2022-10-16T17:21:23;14.90;99.90
39453;DHT22;25154;-33.684;151.102;2022-10-16T17:26:28;15.00;99.90
39453;DHT22;25154;-33.684;151.102;2022-10-16T17:31:35;14.90;99.90
39453;DHT22;25154;-33.684;151.102;2022-10-16T17:36:38;14.90;99.90
39453;DHT22;25154;-33.684;151.102;2022-10-16T17:41:46;14.90;99.90
39453;DHT22;25154;-33.684;151.102;2022-10-16T17:46:51;14.80;99.90
39453;DHT22;25154;-33.684;151.102;2022-10-16T17:51:55;14.70;99.90
39453;DHT22;25154;-33.684;151.102;2022-10-16T17:56:57;14.60;99.90
39453;DHT22;25154;-33.684;151.102;2022-10-16T18:02:00;14.60;99.90
39453;DHT22;25154;-33.684;151.102;2022-10-16T18:07:03;14.60;99.90
39453;DHT22;25154;-33.684;151.102;2022-10-16T18:12:06;14.50;99.90
39453;DHT22;25154;-33.684;151.102;2022-10-16T18:17:09;14.40;99.90
39453;DHT22;25154;-33.684;151.102;2022-10-16T18:22:12;14.30;99.90
39453;DHT22;25154;-33.684;151.102;2022-10-16T18:27:15;14.30;99.90
39453;DHT22;25154;-33.684;151.102;2022-10-16T18:32:17;14.20;99.90
39453;DHT22;25154;-33.684;151.102;2022-10-16T18:37:21;14.20;99.90
39453;DHT22;25154;-33.684;151.102;2022-10-16T18:42:23;14.20;99.90
39453;DHT22;25154;-33.684;151.102;2022-10-16T18:47:28;14.20;99.90
39453;DHT22;25154;-33.684;151.102;2022-10-16T18:52:31;14.20;99.90
39453;DHT22;25154;-33.684;151.102;2022-10-16T18:57:33;14.20;99.90
39453;DHT22;25154;-33.684;151.102;2022-10-16T19:02:36;14.20;99.90
39453;DHT22;25154;-33.684;151.102;2022-10-16T19:07:39;14.20;99.90
39453;DHT22;25154;-33.684;151.102;2022-10-16T19:12:44;14.10;99.90
39453;DHT22;25154;-33.684;151.102;2022-10-16T19:17:47;14.10;99.90
39453;DHT22;25154;-33.684;151.102;2022-10-16T19:22:49;14.10;99.90
39453;DHT22;25154;-33.684;151.102;2022-10-16T19:27:54;14.10;99.90
39453;DHT22;25154;-33.684;151.102;2022-10-16T19:32:57;14.10;99.90
39453;DHT22;25154;-33.684;151.102;2022-10-16T19:38:00;14.00;99.90
39453;DHT22;25154;-33.684;151.102;2022-10-16T19:43:03;14.00;99.90
39453;DHT22;25154;-33.684;151.102;2022-10-16T19:48:06;13.90;99.90
39453;DHT22;25154;-33.684;151.102;2022-10-16T19:53:09;13.70;99.90
39453;DHT22;25154;-33.684;151.102;2022-10-16T19:58:11;13.50;99.90
39453;DHT22;25154;-33.684;151.102;2022-10-16T20:03:14;13.50;99.90
39453;DHT22;25154;-33.684;151.102;2022-10-16T20:08:17;13.40;99.90
39453;DHT22;25154;-33.684;151.102;2022-10-16T20:13:21;13.40;99.90
39453;DHT22;25154;-33.684;151.102;2022-10-16T20:18:24;13.60;99.90
39453;DHT22;25154;-33.684;151.102;2022-10-16T20:23:27;13.60;99.90
39453;DHT22;25154;-33.684;151.102;2022-10-16T20:28:30;13.60;99.90
39453;DHT22;25154;-33.684;151.102;2022-10-16T20:33:33;13.60;99.90
39453;DHT22;25154;-33.684;151.102;2022-10-16T20:38:36;13.60;99.90
39453;DHT22;25154;-33.684;151.102;2022-10-16T20:43:45;13.60;99.90
39453;DHT22;25154;-33.684;151.102;2022-10-16T20:48:48;13.70;99.90
39453;DHT22;25154;-33.684;151.102;2022-10-16T20:54:11;13.70;99.90
39453;DHT22;25154;-33.684;151.102;2022-10-16T20:59:13;13.70;99.90
39453;DHT22;25154;-33.684;151.102;2022-10-16T21:04:16;13.80;99.90
39453;DHT22;25154;-33.684;151.102;2022-10-16T21:09:20;13.90;99.90
39453;DHT22;25154;-33.684;151.102;2022-10-16T21:14:28;13.90;99.90
39453;DHT22;25154;-33.684;151.102;2022-10-16T21:19:32;13.90;99.90
39453;DHT22;25154;-33.684;151.102;2022-10-16T21:24:37;14.00;99.90
39453;DHT22;25154;-33.684;151.102;2022-10-16T21:29:41;14.00;99.90
39453;DHT22;25154;-33.684;151.102;2022-10-16T21:34:45;14.00;99.90
39453;DHT22;25154;-33.684;151.102;2022-10-16T21:39:49;13.90;99.90
39453;DHT22;25154;-33.684;151.102;2022-10-16T21:44:53;14.00;99.90
39453;DHT22;25154;-33.684;151.102;2022-10-16T21:49:56;14.10;99.90
39453;DHT22;25154;-33.684;151.102;2022-10-16T21:55:00;14.10;99.90
39453;DHT22;25154;-33.684;151.102;2022-10-16T22:00:04;14.50;99.90
39453;DHT22;25154;-33.684;151.102;2022-10-16T22:05:07;14.70;99.90
39453;DHT22;25154;-33.684;151.102;2022-10-16T22:10:10;14.80;99.90
39453;DHT22;25154;-33.684;151.102;2022-10-16T22:15:13;14.90;99.90
39453;DHT22;25154;-33.684;151.102;2022-10-16T22:20:16;15.00;99.90
39453;DHT22;25154;-33.684;151.102;2022-10-16T22:25:18;14.90;99.90
39453;DHT22;25154;-33.684;151.102;2022-10-16T22:30:21;14.90;99.90
39453;DHT22;25154;-33.684;151.102;2022-10-16T22:35:24;15.00;99.90
39453;DHT22;25154;-33.684;151.102;2022-10-16T22:40:27;15.20;99.90
39453;DHT22;25154;-33.684;151.102;2022-10-16T22:45:30;15.40;99.90
39453;DHT22;25154;-33.684;151.102;2022-10-16T22:50:33;15.70;99.90
39453;DHT22;25154;-33.684;151.102;2022-10-16T22:55:36;15.80;99.90
39453;DHT22;25154;-33.684;151.102;2022-10-16T23:00:41;16.00;99.90
39453;DHT22;25154;-33.684;151.102;2022-10-16T23:05:44;16.20;99.90
39453;DHT22;25154;-33.684;151.102;2022-10-16T23:10:47;16.40;99.90
39453;DHT22;25154;-33.684;151.102;2022-10-16T23:15:50;16.40;99.90
39453;DHT22;25154;-33.684;151.102;2022-10-16T23:20:53;16.50;99.90
39453;DHT22;25154;-33.684;151.102;2022-10-16T23:25:56;16.40;99.90
39453;DHT22;25154;-33.684;151.102;2022-10-16T23:30:58;16.40;99.90
39453;DHT22;25154;-33.684;151.102;2022-10-16T23:36:05;16.40;99.90
39453;DHT22;25154;-33.684;151.102;2022-10-16T23:41:09;16.50;99.90
39453;DHT22;25154;-33.684;151.102;2022-10-16T23:46:13;16.70;99.90
39453;DHT22;25154;-33.684;151.102;2022-10-16T23:51:16;16.60;99.90
39453;DHT22;25154;-33.684;151.102;2022-10-16T23:56:19;16.80;99.90
